Time;durP1;ratioP1;P1;durP2;ratioP2;P2;SDS_P1;SDS_P2;PMS_P1;PMS_P2;Temp;Humidity;BMP_temperature;BMP_pressure;BME280_temperature;BME280_humidity;BME280_pressure;Samples;Min_cycle;Max_cycle;Signal;HPM_P1;HPM_P2
2022/07/13 00:00:13;;;;;;;16.88;13.63;;;;;;;;;;4738757;30;20521;-59
2022/07/13 00:02:41;;;;;;;13.60;12.25;;;;;;;;;;4739092;30;20045;-51
2022/07/13 00:05:08;;;;;;;15.77;14.18;;;;;;;;;;4738989;30;20041;-51
2022/07/13 00:07:36;;;;;;;21.48;16.52;;;;;;;;;;4739093;30;20048;-51
2022/07/13 00:10:04;;;;;;;16.52;12.75;;;;;;;;;;4739199;30;20048;-52
2022/07/13 00:12:31;;;;;;;15.00;12.20;;;;;;;;;;4738992;30;20123;-60
2022/07/13 00:14:58;;;;;;;18.08;15.40;;;;;;;;;;4738471;30;20084;-49
2022/07/13 00:17:25;;;;;;;15.52;13.80;;;;;;;;;;4723377;30;20514;-61
2022/07/13 00:19:53;;;;;;;58.47;39.03;;;;;;;;;;4738962;30;20056;-48
2022/07/13 00:22:20;;;;;;;96.68;64.35;;;;;;;;;;4738838;30;20051;-60
2022/07/13 00:24:47;;;;;;;40.80;31.25;;;;;;;;;;4739059;30;20131;-51
2022/07/13 00:27:15;;;;;;;20.23;17.58;;;;;;;;;;4735506;30;20052;-54
2022/07/13 00:29:43;;;;;;;21.17;17.50;;;;;;;;;;4720124;30;20126;-59
2022/07/13 00:32:10;;;;;;;17.33;15.52;;;;;;;;;;4720386;30;20402;-51
2022/07/13 00:34:37;;;;;;;25.33;20.75;;;;;;;;;;4720182;30;20536;-50
2022/07/13 00:37:05;;;;;;;18.08;16.17;;;;;;;;;;4736160;30;20114;-60
2022/07/13 00:39:32;;;;;;;13.63;12.35;;;;;;;;;;4736218;30;20044;-54
2022/07/13 00:41:59;;;;;;;17.50;14.70;;;;;;;;;;4735808;30;20052;-56
2022/07/13 00:44:27;;;;;;;13.55;12.23;;;;;;;;;;4720071;30;20133;-53
2022/07/13 00:46:54;;;;;;;16.50;14.80;;;;;;;;;;4735603;30;20052;-60
2022/07/13 00:49:22;;;;;;;16.30;13.45;;;;;;;;;;4735906;30;20053;-53
2022/07/13 00:51:50;;;;;;;17.95;15.55;;;;;;;;;;4719717;30;20502;-51
2022/07/13 00:54:28;;;;;;;18.60;16.70;;;;;;;;;;4735445;30;20391;-51
2022/07/13 00:56:57;;;;;;;14.68;13.38;;;;;;;;;;4719873;30;20142;-52
2022/07/13 00:59:25;;;;;;;14.88;13.38;;;;;;;;;;4728584;30;20057;-60
2022/07/13 01:01:54;;;;;;;13.02;11.82;;;;;;;;;;4735461;30;20051;-59
2022/07/13 01:04:23;;;;;;;15.30;13.75;;;;;;;;;;4735392;30;20051;-51
2022/07/13 01:06:54;;;;;;;15.30;13.43;;;;;;;;;;4719736;30;20049;-59
2022/07/13 01:09:26;;;;;;;16.40;14.70;;;;;;;;;;4735138;30;20470;-58
2022/07/13 01:11:53;;;;;;;17.33;15.48;;;;;;;;;;4735416;30;20057;-52
2022/07/13 01:14:24;;;;;;;21.48;16.35;;;;;;;;;;4735302;30;20048;-53
2022/07/13 01:16:54;;;;;;;14.48;13.10;;;;;;;;;;4735455;30;20080;-59
2022/07/13 01:19:22;;;;;;;15.98;14.48;;;;;;;;;;4735251;30;20067;-53
2022/07/13 01:21:56;;;;;;;16.27;14.27;;;;;;;;;;4719510;30;20080;-52
2022/07/13 01:24:25;;;;;;;14.77;13.32;;;;;;;;;;4734935;30;20055;-53
2022/07/13 01:26:52;;;;;;;15.20;13.60;;;;;;;;;;4735144;30;20052;-51
2022/07/13 01:29:19;;;;;;;18.63;15.18;;;;;;;;;;4735245;30;20139;-52
2022/07/13 01:31:47;;;;;;;17.77;16.00;;;;;;;;;;4734504;30;20145;-53
2022/07/13 01:34:16;;;;;;;18.42;16.25;;;;;;;;;;4734791;30;20483;-51
2022/07/13 01:36:43;;;;;;;14.82;13.43;;;;;;;;;;4719222;30;20045;-52
2022/07/13 01:39:11;;;;;;;17.50;14.48;;;;;;;;;;4734694;30;20438;-50
2022/07/13 01:41:38;;;;;;;14.85;13.35;;;;;;;;;;4719211;30;20055;-50
2022/07/13 01:44:05;;;;;;;20.85;18.35;;;;;;;;;;4735037;30;20044;-60
2022/07/13 01:46:32;;;;;;;14.50;12.95;;;;;;;;;;4734822;30;20406;-59
2022/07/13 01:49:00;;;;;;;18.75;15.73;;;;;;;;;;4734606;30;20057;-52
2022/07/13 01:51:27;;;;;;;16.67;14.98;;;;;;;;;;4718997;30;20514;-51
2022/07/13 01:53:55;;;;;;;15.30;13.65;;;;;;;;;;4734804;30;20049;-51
2022/07/13 01:56:22;;;;;;;13.93;12.48;;;;;;;;;;4718776;30;20445;-60
2022/07/13 01:58:49;;;;;;;23.65;17.02;;;;;;;;;;4718792;30;20086;-59
2022/07/13 02:01:16;;;;;;;16.48;12.35;;;;;;;;;;4718525;30;20502;-60
2022/07/13 02:03:47;;;;;;;14.43;12.63;;;;;;;;;;4718779;30;20156;-52
2022/07/13 02:06:14;;;;;;;17.08;15.38;;;;;;;;;;4718545;30;20049;-60
2022/07/13 02:08:41;;;;;;;15.93;11.88;;;;;;;;;;4734360;30;20053;-60
2022/07/13 02:11:16;;;;;;;13.65;12.35;;;;;;;;;;4718498;30;20049;-60
2022/07/13 02:13:45;;;;;;;16.17;13.35;;;;;;;;;;4718453;30;20052;-59
2022/07/13 02:16:13;;;;;;;16.98;15.18;;;;;;;;;;4734349;30;20048;-59
2022/07/13 02:18:41;;;;;;;14.85;13.43;;;;;;;;;;4734125;30;20063;-60
2022/07/13 02:21:09;;;;;;;19.23;16.63;;;;;;;;;;4734421;30;20073;-58
2022/07/13 02:23:37;;;;;;;17.70;15.80;;;;;;;;;;4734624;30;20071;-60
2022/07/13 02:26:04;;;;;;;18.75;15.48;;;;;;;;;;4734417;30;20079;-60
2022/07/13 02:28:31;;;;;;;18.60;16.42;;;;;;;;;;4734001;30;20053;-59
2022/07/13 02:30:59;;;;;;;22.08;18.45;;;;;;;;;;4718458;30;20049;-60
2022/07/13 02:33:26;;;;;;;16.98;15.35;;;;;;;;;;4734105;30;20049;-60
2022/07/13 02:35:53;;;;;;;17.10;15.30;;;;;;;;;;4718348;30;20056;-59
2022/07/13 02:38:21;;;;;;;19.38;17.20;;;;;;;;;;4717939;30;20135;-57
2022/07/13 02:40:48;;;;;;;20.33;18.23;;;;;;;;;;4733834;30;20047;-48
2022/07/13 02:43:16;;;;;;;17.55;15.95;;;;;;;;;;4733959;30;20053;-50
2022/07/13 02:45:43;;;;;;;18.92;16.92;;;;;;;;;;4733929;30;20107;-59
2022/07/13 02:48:10;;;;;;;30.17;26.10;;;;;;;;;;4733827;30;20389;-54
2022/07/13 02:50:38;;;;;;;17.13;15.38;;;;;;;;;;4733053;30;20044;-51
2022/07/13 02:53:05;;;;;;;15.68;14.18;;;;;;;;;;4718194;30;20135;-50
2022/07/13 02:55:35;;;;;;;17.13;15.10;;;;;;;;;;4718377;30;20405;-51
2022/07/13 02:58:02;;;;;;;15.85;14.25;;;;;;;;;;4718115;30;20106;-59
2022/07/13 03:00:30;;;;;;;16.83;14.93;;;;;;;;;;4717851;30;20067;-58
2022/07/13 03:02:58;;;;;;;16.77;15.18;;;;;;;;;;4718139;30;20076;-53
2022/07/13 03:05:26;;;;;;;15.57;14.18;;;;;;;;;;4733672;30;20117;-51
2022/07/13 03:07:54;;;;;;;17.15;15.45;;;;;;;;;;4717769;30;20405;-52
2022/07/13 03:10:22;;;;;;;16.38;14.88;;;;;;;;;;4717816;30;20143;-49
2022/07/13 03:12:55;;;;;;;15.93;14.38;;;;;;;;;;4717920;30;20067;-51
2022/07/13 03:15:22;;;;;;;300.02;161.13;;;;;;;;;;4733707;30;20048;-53
2022/07/13 03:17:50;;;;;;;53.72;33.85;;;;;;;;;;4717780;30;20049;-52
2022/07/13 03:20:18;;;;;;;19.52;16.20;;;;;;;;;;4726571;30;20062;-58
2022/07/13 03:22:45;;;;;;;15.88;14.25;;;;;;;;;;4746295;30;20526;-49
2022/07/13 03:25:14;;;;;;;24.25;19.15;;;;;;;;;;4715842;30;20084;-51
2022/07/13 03:27:50;;;;;;;18.85;16.95;;;;;;;;;;4714645;30;20060;-50
2022/07/13 03:30:19;;;;;;;15.70;14.30;;;;;;;;;;4714604;30;20538;-51
2022/07/13 03:32:48;;;;;;;16.67;15.05;;;;;;;;;;4700122;30;20072;-50
2022/07/13 03:35:16;;;;;;;23.08;20.40;;;;;;;;;;4700433;30;20049;-50
2022/07/13 03:37:48;;;;;;;22.98;19.17;;;;;;;;;;4700280;30;20140;-59
2022/07/13 03:40:18;;;;;;;17.48;15.00;;;;;;;;;;4699895;30;20067;-54
2022/07/13 03:42:50;;;;;;;15.23;13.73;;;;;;;;;;4716101;30;20414;-52
2022/07/13 03:45:18;;;;;;;21.17;13.75;;;;;;;;;;4714376;30;20107;-49
2022/07/13 03:47:47;;;;;;;16.38;14.88;;;;;;;;;;4700375;30;20077;-59
2022/07/13 03:50:15;;;;;;;16.33;14.68;;;;;;;;;;4704823;30;20045;-52
2022/07/13 03:52:44;;;;;;;16.77;14.43;;;;;;;;;;4733306;30;20051;-52
2022/07/13 03:55:14;;;;;;;26.75;14.10;;;;;;;;;;4717554;30;20044;-59
2022/07/13 03:57:43;;;;;;;14.48;12.98;;;;;;;;;;4717355;30;20049;-50
2022/07/13 04:00:13;;;;;;;15.57;14.18;;;;;;;;;;4717710;30;20052;-55
2022/07/13 04:02:47;;;;;;;14.65;13.25;;;;;;;;;;4720587;30;20053;-52
2022/07/13 04:05:16;;;;;;;17.88;16.17;;;;;;;;;;4720958;30;20060;-52
2022/07/13 04:07:45;;;;;;;15.77;14.30;;;;;;;;;;4720593;30;20083;-51
2022/07/13 04:10:12;;;;;;;16.42;14.73;;;;;;;;;;4736420;30;20060;-57
2022/07/13 04:12:42;;;;;;;16.15;14.70;;;;;;;;;;4736432;30;20477;-55
2022/07/13 04:15:13;;;;;;;16.77;15.13;;;;;;;;;;4720410;30;20072;-49
2022/07/13 04:17:42;;;;;;;15.88;14.45;;;;;;;;;;4720845;30;20052;-52
2022/07/13 04:20:11;;;;;;;16.45;14.80;;;;;;;;;;4720210;30;20059;-49
2022/07/13 04:22:41;;;;;;;16.50;14.90;;;;;;;;;;4720792;30;20052;-55
2022/07/13 04:25:09;;;;;;;34.35;28.42;;;;;;;;;;4720418;30;20072;-51
2022/07/13 04:27:36;;;;;;;20.17;18.08;;;;;;;;;;4720591;30;20114;-59
2022/07/13 04:30:05;;;;;;;16.50;14.90;;;;;;;;;;4720479;30;20068;-52
2022/07/13 04:32:33;;;;;;;17.23;15.52;;;;;;;;;;4720234;30;20140;-55
2022/07/13 04:35:02;;;;;;;17.17;15.38;;;;;;;;;;4735972;30;20052;-57
2022/07/13 04:37:35;;;;;;;17.58;15.80;;;;;;;;;;4720037;30;20064;-60
2022/07/13 04:40:04;;;;;;;16.98;15.25;;;;;;;;;;4736007;30;20079;-52
2022/07/13 04:42:33;;;;;;;17.40;15.70;;;;;;;;;;4720191;30;21751;-51
2022/07/13 04:45:01;;;;;;;16.73;15.13;;;;;;;;;;4720117;30;20060;-50
2022/07/13 04:47:31;;;;;;;16.10;14.60;;;;;;;;;;4720042;30;20052;-60
2022/07/13 04:49:59;;;;;;;17.08;15.45;;;;;;;;;;4719658;30;20555;-49
2022/07/13 04:52:26;;;;;;;18.50;16.77;;;;;;;;;;4719860;30;20044;-49
2022/07/13 04:54:54;;;;;;;32.08;27.77;;;;;;;;;;4719780;30;20099;-56
2022/07/13 04:57:22;;;;;;;20.65;18.58;;;;;;;;;;4705237;30;20532;-49
2022/07/13 04:59:49;;;;;;;16.92;15.35;;;;;;;;;;4719817;30;20052;-51
2022/07/13 05:02:17;;;;;;;17.67;15.90;;;;;;;;;;4735036;30;20132;-51
2022/07/13 05:04:45;;;;;;;17.00;15.50;;;;;;;;;;4719334;30;20049;-51
2022/07/13 05:07:12;;;;;;;16.77;15.02;;;;;;;;;;4719245;30;20045;-52
2022/07/13 05:09:39;;;;;;;17.95;16.15;;;;;;;;;;4735062;30;20403;-53
2022/07/13 05:12:07;;;;;;;17.33;15.70;;;;;;;;;;4734801;30;20052;-51
2022/07/13 05:14:37;;;;;;;16.73;15.32;;;;;;;;;;4705571;30;20125;-52
2022/07/13 05:17:04;;;;;;;17.50;15.77;;;;;;;;;;4719375;30;20528;-52
2022/07/13 05:19:33;;;;;;;15.88;14.27;;;;;;;;;;4719626;30;20053;-60
2022/07/13 05:22:01;;;;;;;35.17;26.02;;;;;;;;;;4719503;30;20180;-52
2022/07/13 05:24:28;;;;;;;18.58;16.88;;;;;;;;;;4719153;30;20076;-54
2022/07/13 05:26:56;;;;;;;17.23;15.63;;;;;;;;;;4719592;30;20056;-49
2022/07/13 05:29:23;;;;;;;19.60;17.58;;;;;;;;;;4719133;30;20049;-51
2022/07/13 05:31:51;;;;;;;18.02;16.33;;;;;;;;;;4734769;30;20057;-54
2022/07/13 05:34:18;;;;;;;17.33;15.80;;;;;;;;;;4734653;30;20115;-50
2022/07/13 05:36:47;;;;;;;18.80;17.10;;;;;;;;;;4719263;30;20402;-48
2022/07/13 05:39:14;;;;;;;19.33;15.95;;;;;;;;;;4718872;30;20052;-52
2022/07/13 05:41:41;;;;;;;18.85;17.00;;;;;;;;;;4719061;30;20051;-58
2022/07/13 05:44:08;;;;;;;18.23;16.55;;;;;;;;;;4734601;30;20075;-49
2022/07/13 05:46:35;;;;;;;40.53;33.53;;;;;;;;;;4734993;30;20044;-52
2022/07/13 05:49:05;;;;;;;19.60;17.70;;;;;;;;;;4719119;30;20131;-59
2022/07/13 05:51:32;;;;;;;18.20;16.52;;;;;;;;;;4734670;30;20106;-53
2022/07/13 05:54:05;;;;;;;15.55;14.13;;;;;;;;;;4734854;30;20543;-53
2022/07/13 05:56:53;;;;;;;16.58;14.88;;;;;;;;;;4734682;30;20527;-51
2022/07/13 05:59:20;;;;;;;15.20;13.57;;;;;;;;;;4734264;30;20060;-52
2022/07/13 06:01:47;;;;;;;13.63;12.43;;;;;;;;;;4734608;30;20060;-52
2022/07/13 06:04:16;;;;;;;12.88;11.68;;;;;;;;;;4734115;30;20132;-59
2022/07/13 06:06:44;;;;;;;15.68;12.65;;;;;;;;;;4734396;30;20556;-51
2022/07/13 06:09:11;;;;;;;14.07;12.85;;;;;;;;;;4734266;30;20045;-51
2022/07/13 06:11:39;;;;;;;24.45;21.80;;;;;;;;;;4734641;30;20579;-59
2022/07/13 06:14:06;;;;;;;17.05;13.20;;;;;;;;;;4734469;30;20040;-51
2022/07/13 06:16:36;;;;;;;13.00;11.90;;;;;;;;;;4734160;30;20540;-51
2022/07/13 06:19:04;;;;;;;14.15;12.50;;;;;;;;;;4734469;30;20061;-52
2022/07/13 06:21:32;;;;;;;13.05;11.73;;;;;;;;;;4733993;30;20064;-53
2022/07/13 06:24:01;;;;;;;12.77;11.55;;;;;;;;;;4733311;30;20356;-59
2022/07/13 06:26:28;;;;;;;13.05;11.93;;;;;;;;;;4734327;30;20053;-50
2022/07/13 06:28:55;;;;;;;13.00;11.77;;;;;;;;;;4734014;30;20056;-60
2022/07/13 06:31:23;;;;;;;13.30;12.00;;;;;;;;;;4734201;30;20063;-52
2022/07/13 06:33:52;;;;;;;13.23;12.02;;;;;;;;;;4734124;30;20151;-51
2022/07/13 06:36:19;;;;;;;12.50;11.40;;;;;;;;;;4734041;30;20127;-51
2022/07/13 06:38:47;;;;;;;21.45;18.52;;;;;;;;;;4734003;30;20139;-51
2022/07/13 06:41:14;;;;;;;16.48;14.88;;;;;;;;;;4733793;30;20052;-53
2022/07/13 06:43:42;;;;;;;12.68;11.48;;;;;;;;;;4733654;30;20639;-52
2022/07/13 06:46:09;;;;;;;12.45;11.35;;;;;;;;;;4733894;30;20122;-51
2022/07/13 06:48:37;;;;;;;12.10;11.00;;;;;;;;;;4734174;30;20466;-51
2022/07/13 06:51:04;;;;;;;11.75;10.50;;;;;;;;;;4733733;30;20116;-50
2022/07/13 06:53:31;;;;;;;11.82;10.73;;;;;;;;;;4733565;30;20048;-52
2022/07/13 06:55:58;;;;;;;11.15;10.15;;;;;;;;;;4733684;30;20052;-50
2022/07/13 06:58:26;;;;;;;11.35;10.25;;;;;;;;;;4733299;30;20087;-60
2022/07/13 07:00:53;;;;;;;10.25;9.35;;;;;;;;;;4718251;30;20049;-59
2022/07/13 07:03:20;;;;;;;11.65;10.10;;;;;;;;;;4733716;30;20506;-51
2022/07/13 07:05:49;;;;;;;10.30;9.40;;;;;;;;;;4733281;30;20092;-53
2022/07/13 07:08:17;;;;;;;47.15;33.45;;;;;;;;;;4733532;30;20041;-49
2022/07/13 07:10:46;;;;;;;31.45;21.38;;;;;;;;;;4733397;30;20057;-49
2022/07/13 07:13:15;;;;;;;19.70;14.85;;;;;;;;;;4733515;30;20048;-60
2022/07/13 07:15:43;;;;;;;9.52;7.68;;;;;;;;;;4733338;30;20435;-52
2022/07/13 07:18:10;;;;;;;9.88;8.90;;;;;;;;;;4733558;30;20646;-53
2022/07/13 07:20:38;;;;;;;9.82;8.20;;;;;;;;;;4733838;30;20052;-53
2022/07/13 07:23:06;;;;;;;9.27;7.38;;;;;;;;;;4733724;30;20049;-54
2022/07/13 07:25:34;;;;;;;13.05;8.20;;;;;;;;;;4733786;30;20482;-53
2022/07/13 07:28:03;;;;;;;8.02;7.22;;;;;;;;;;4733304;30;20074;-49
2022/07/13 07:30:30;;;;;;;9.30;7.82;;;;;;;;;;4733125;30;20053;-62
2022/07/13 07:32:58;;;;;;;144.98;91.03;;;;;;;;;;4733451;30;20506;-52
2022/07/13 07:35:26;;;;;;;12.55;10.45;;;;;;;;;;4733932;30;20045;-61
2022/07/13 07:37:55;;;;;;;8.85;7.82;;;;;;;;;;4736769;30;20045;-55
2022/07/13 07:40:22;;;;;;;7.43;6.78;;;;;;;;;;4736539;30;20434;-50
2022/07/13 07:42:51;;;;;;;8.48;7.47;;;;;;;;;;4736531;30;20049;-54
2022/07/13 07:45:19;;;;;;;13.80;8.50;;;;;;;;;;4736539;30;20052;-49
2022/07/13 07:47:47;;;;;;;8.70;7.90;;;;;;;;;;4736295;30;20465;-49
2022/07/13 07:50:14;;;;;;;8.93;7.75;;;;;;;;;;4736537;30;20052;-51
2022/07/13 07:52:41;;;;;;;8.32;7.47;;;;;;;;;;4736568;30;20045;-55
2022/07/13 07:55:24;;;;;;;;;;;;;;;;;;4737126;30;20414;-51
2022/07/13 07:57:51;;;;;;;8.82;8.02;;;;;;;;;;4720891;30;19984;-49
2022/07/13 08:00:20;;;;;;;18.95;14.50;;;;;;;;;;4736147;30;20540;-51
2022/07/13 08:02:47;;;;;;;10.38;9.25;;;;;;;;;;4736436;30;20552;-52
2022/07/13 08:05:16;;;;;;;9.32;8.43;;;;;;;;;;4736742;30;20502;-53
2022/07/13 08:07:45;;;;;;;8.93;7.65;;;;;;;;;;4736120;30;20045;-53
2022/07/13 08:10:13;;;;;;;9.88;8.45;;;;;;;;;;4735990;30;20052;-60
2022/07/13 08:12:56;;;;;;;11.38;8.63;;;;;;;;;;4736491;30;20509;-53
2022/07/13 08:15:24;;;;;;;9.65;8.65;;;;;;;;;;4735831;30;20045;-52
2022/07/13 08:17:51;;;;;;;10.32;8.77;;;;;;;;;;4736135;30;20491;-52
2022/07/13 08:20:18;;;;;;;10.30;7.95;;;;;;;;;;4736002;30;20127;-53
2022/07/13 08:22:49;;;;;;;11.20;8.40;;;;;;;;;;4736057;30;20067;-60
2022/07/13 08:25:17;;;;;;;14.20;12.73;;;;;;;;;;4735394;30;20144;-53
2022/07/13 08:27:45;;;;;;;18.38;16.42;;;;;;;;;;4734778;30;20098;-52
2022/07/13 08:30:12;;;;;;;9.65;8.73;;;;;;;;;;4734934;30;20045;-53
2022/07/13 08:32:40;;;;;;;10.10;8.45;;;;;;;;;;4735378;30;20059;-55
2022/07/13 08:41:00;;;;;;;9.68;8.63;;;;;;;;;;4664116;30;20090;-52
2022/07/13 08:43:27;;;;;;;9.07;8.20;;;;;;;;;;4707170;30;20060;-51
2022/07/13 08:45:55;;;;;;;8.90;7.97;;;;;;;;;;4734837;30;20084;-60
2022/07/13 08:48:32;;;;;;;9.90;7.72;;;;;;;;;;4732912;30;20053;-52
2022/07/13 08:51:01;;;;;;;9.48;8.18;;;;;;;;;;4724172;30;20061;-50
2022/07/13 08:53:28;;;;;;;8.55;7.68;;;;;;;;;;4716008;30;20049;-49
2022/07/13 08:55:56;;;;;;;8.43;7.57;;;;;;;;;;4717226;30;20064;-61
2022/07/13 08:58:25;;;;;;;10.45;9.43;;;;;;;;;;4716771;30;20057;-53
2022/07/13 09:00:52;;;;;;;10.38;8.07;;;;;;;;;;4717589;30;20049;-54
2022/07/13 09:03:20;;;;;;;9.27;8.43;;;;;;;;;;4718064;30;20049;-53
2022/07/13 09:05:47;;;;;;;9.15;8.25;;;;;;;;;;4717861;30;20474;-52
2022/07/13 09:08:14;;;;;;;9.05;8.20;;;;;;;;;;4701957;30;20572;-59
2022/07/13 09:10:57;;;;;;;10.20;8.07;;;;;;;;;;4717818;30;20053;-52
2022/07/13 09:13:34;;;;;;;8.70;7.90;;;;;;;;;;4717164;30;20057;-53
2022/07/13 09:16:16;;;;;;;8.65;7.15;;;;;;;;;;4717942;30;20060;-60
2022/07/13 09:18:44;;;;;;;13.15;11.30;;;;;;;;;;4717864;30;20045;-54
2022/07/13 09:21:12;;;;;;;9.30;8.35;;;;;;;;;;4717687;30;20148;-52
2022/07/13 09:23:40;;;;;;;7.65;6.95;;;;;;;;;;4718268;30;20418;-51
2022/07/13 09:26:07;;;;;;;9.52;7.88;;;;;;;;;;4717980;30;20048;-61
2022/07/13 09:28:45;;;;;;;11.13;7.90;;;;;;;;;;4717674;30;20049;-60
2022/07/13 09:31:14;;;;;;;8.20;7.40;;;;;;;;;;4717347;30;20514;-51
2022/07/13 09:33:43;;;;;;;8.60;7.28;;;;;;;;;;4717452;30;20505;-50
2022/07/13 09:36:22;;;;;;;11.52;7.32;;;;;;;;;;4717547;30;20045;-52
2022/07/13 09:38:53;;;;;;;8.32;7.03;;;;;;;;;;4717653;30;20131;-53
2022/07/13 09:41:25;;;;;;;8.95;7.75;;;;;;;;;;4717419;30;20584;-52
2022/07/13 09:46:54;;;;;;;;;;;;;;;;;;4717779;30;20507;-53
2022/07/13 09:49:37;;;;;;;9.63;7.60;;;;;;;;;;4717202;30;20303;-49
2022/07/13 09:52:06;;;;;;;10.82;7.15;;;;;;;;;;4717295;30;20053;-52
2022/07/13 09:54:35;;;;;;;9.38;6.97;;;;;;;;;;4717019;30;20580;-54
2022/07/13 09:57:08;;;;;;;8.90;7.47;;;;;;;;;;4717259;30;20132;-52
2022/07/13 09:59:39;;;;;;;7.90;7.00;;;;;;;;;;4717014;30;20096;-60
2022/07/13 10:02:07;;;;;;;10.20;7.25;;;;;;;;;;4717069;30;20045;-49
2022/07/13 10:04:36;;;;;;;8.45;6.40;;;;;;;;;;4716940;30;20446;-50
2022/07/13 10:07:15;;;;;;;10.45;6.55;;;;;;;;;;4717054;30;20473;-60
2022/07/13 10:09:43;;;;;;;9.43;6.20;;;;;;;;;;4716829;30;20045;-53
2022/07/13 10:12:11;;;;;;;7.43;5.78;;;;;;;;;;4717267;30;20088;-51
2022/07/13 10:14:39;;;;;;;8.63;6.05;;;;;;;;;;4717273;30;20048;-61
2022/07/13 10:17:16;;;;;;;11.70;5.88;;;;;;;;;;4716880;30;20057;-53
2022/07/13 10:19:49;;;;;;;11.95;6.50;;;;;;;;;;4717029;30;20057;-52
2022/07/13 10:22:23;;;;;;;6.93;5.70;;;;;;;;;;4716603;30;20049;-60
2022/07/13 10:25:00;;;;;;;7.53;5.90;;;;;;;;;;4716818;30;20061;-53
2022/07/13 10:27:31;;;;;;;14.27;6.40;;;;;;;;;;4701359;30;20132;-59
2022/07/13 10:30:20;;;;;;;9.00;5.95;;;;;;;;;;4716345;30;20045;-58
2022/07/13 10:32:47;;;;;;;9.05;5.82;;;;;;;;;;4716638;30;20057;-60
2022/07/13 10:35:17;;;;;;;8.68;6.65;;;;;;;;;;4716803;30;20051;-60
2022/07/13 10:37:56;;;;;;;10.93;8.07;;;;;;;;;;4716128;30;20061;-54
2022/07/13 10:40:32;;;;;;;11.80;7.68;;;;;;;;;;4716486;30;20041;-55
2022/07/13 10:43:01;;;;;;;13.63;8.35;;;;;;;;;;4716830;30;20530;-58
2022/07/13 10:45:34;;;;;;;9.27;7.10;;;;;;;;;;4716694;30;20052;-59
2022/07/13 10:48:04;;;;;;;16.83;8.85;;;;;;;;;;4716663;30;20053;-54
2022/07/13 10:50:44;;;;;;;13.48;8.63;;;;;;;;;;4723044;30;20059;-53
2022/07/13 10:53:16;;;;;;;11.85;6.78;;;;;;;;;;4734271;30;20123;-53
2022/07/13 10:55:49;;;;;;;5.85;4.53;;;;;;;;;;4733162;30;20575;-54
2022/07/13 10:58:33;;;;;;;2.92;2.63;;;;;;;;;;4732322;30;20081;-54
2022/07/13 11:01:22;;;;;;;4.65;3.10;;;;;;;;;;4733581;30;20433;-48
2022/07/13 11:03:52;;;;;;;9.80;6.20;;;;;;;;;;4715959;30;20045;-60
2022/07/13 11:06:24;;;;;;;4.60;3.30;;;;;;;;;;4716184;30;20049;-56
2022/07/13 11:09:09;;;;;;;6.13;3.40;;;;;;;;;;4715876;30;20766;-59
2022/07/13 11:12:19;;;;;;;8.55;3.42;;;;;;;;;;4714654;30;20052;-54
2022/07/13 11:14:50;;;;;;;4.22;3.28;;;;;;;;;;4713499;30;20538;-52
2022/07/13 11:17:27;;;;;;;3.92;3.15;;;;;;;;;;4713873;30;20045;-55
2022/07/13 11:20:09;;;;;;;5.03;3.28;;;;;;;;;;4714100;30;20124;-55
2022/07/13 11:25:49;;;;;;;4.78;3.80;;;;;;;;;;4713795;30;20049;-55
2022/07/13 11:28:40;;;;;;;7.75;4.40;;;;;;;;;;4715749;30;20060;-60
2022/07/13 11:31:12;;;;;;;6.25;4.63;;;;;;;;;;4714910;30;20535;-54
2022/07/13 11:33:51;;;;;;;5.05;3.83;;;;;;;;;;4716398;30;20132;-60
2022/07/13 11:36:24;;;;;;;8.13;4.88;;;;;;;;;;4714910;30;20080;-58
2022/07/13 11:39:00;;;;;;;5.38;4.53;;;;;;;;;;4715137;30;20069;-59
2022/07/13 11:41:27;;;;;;;8.88;4.93;;;;;;;;;;4700304;30;20514;-55
2022/07/13 11:43:55;;;;;;;5.68;4.80;;;;;;;;;;4716053;30;20045;-55
2022/07/13 11:46:27;;;;;;;9.38;5.90;;;;;;;;;;4700346;30;20498;-51
2022/07/13 11:49:03;;;;;;;9.83;6.63;;;;;;;;;;4715645;30;20122;-55
2022/07/13 11:51:31;;;;;;;6.82;5.75;;;;;;;;;;4729784;30;20049;-57
2022/07/13 11:54:17;;;;;;;9.13;5.78;;;;;;;;;;4733352;30;20045;-54
2022/07/13 11:56:58;;;;;;;7.15;5.97;;;;;;;;;;4733339;30;20063;-59
2022/07/13 11:59:41;;;;;;;8.43;7.53;;;;;;;;;;4732999;30;20148;-59
2022/07/13 12:02:11;;;;;;;9.75;8.30;;;;;;;;;;4733303;30;20131;-55
2022/07/13 12:04:40;;;;;;;11.32;8.35;;;;;;;;;;4733245;30;20051;-52
2022/07/13 12:07:20;;;;;;;9.77;8.75;;;;;;;;;;4733300;30;20059;-54
2022/07/13 12:09:51;;;;;;;11.95;9.60;;;;;;;;;;4732956;30;20053;-59
2022/07/13 12:12:26;;;;;;;12.25;10.98;;;;;;;;;;4732869;30;20468;-53
2022/07/13 12:14:55;;;;;;;13.45;10.68;;;;;;;;;;4733301;30;20049;-55
2022/07/13 12:17:24;;;;;;;12.23;9.70;;;;;;;;;;4733122;30;20045;-54
2022/07/13 12:19:52;;;;;;;10.52;9.48;;;;;;;;;;4733011;30;20509;-55
2022/07/13 12:22:23;;;;;;;12.70;10.23;;;;;;;;;;4734546;30;20524;-55
2022/07/13 12:24:52;;;;;;;14.32;9.93;;;;;;;;;;4736257;30;20603;-57
2022/07/13 12:27:25;;;;;;;11.13;10.05;;;;;;;;;;4736193;30;20510;-54
2022/07/13 12:30:07;;;;;;;14.85;11.38;;;;;;;;;;4736218;30;20462;-56
2022/07/13 12:32:56;;;;;;;13.75;12.35;;;;;;;;;;4735504;30;20522;-54
2022/07/13 12:35:26;;;;;;;14.18;11.98;;;;;;;;;;4720489;30;20070;-59
2022/07/13 12:37:55;;;;;;;12.90;11.70;;;;;;;;;;4736167;30;20051;-54
2022/07/13 12:40:41;;;;;;;13.32;11.85;;;;;;;;;;4735995;30;20586;-58
2022/07/13 12:43:22;;;;;;;26.92;21.55;;;;;;;;;;4735942;30;20044;-53
2022/07/13 12:46:01;;;;;;;13.73;11.60;;;;;;;;;;4748875;30;20051;-55
2022/07/13 12:48:29;;;;;;;13.45;11.35;;;;;;;;;;4752347;30;20417;-52
2022/07/13 12:51:08;;;;;;;15.13;11.27;;;;;;;;;;4742057;30;20044;-55
2022/07/13 12:53:50;;;;;;;12.48;10.25;;;;;;;;;;4735999;30;20060;-59
2022/07/13 12:56:19;;;;;;;15.65;11.82;;;;;;;;;;4720042;30;20418;-52
2022/07/13 12:58:53;;;;;;;15.63;10.95;;;;;;;;;;4735700;30;20418;-56
2022/07/13 13:01:31;;;;;;;12.18;10.93;;;;;;;;;;4735839;30;20052;-60
2022/07/13 13:04:00;;;;;;;11.55;10.40;;;;;;;;;;4735569;30;20529;-60
2022/07/13 13:06:33;;;;;;;12.52;9.88;;;;;;;;;;4735486;30;20052;-55
2022/07/13 13:09:07;;;;;;;11.25;10.07;;;;;;;;;;4735890;30;20071;-60
2022/07/13 13:11:35;;;;;;;11.52;10.32;;;;;;;;;;4735201;30;20139;-55
2022/07/13 13:14:06;;;;;;;14.35;10.32;;;;;;;;;;4735126;30;20067;-54
2022/07/13 13:16:34;;;;;;;13.85;11.02;;;;;;;;;;4735576;30;20055;-53
2022/07/13 13:19:02;;;;;;;12.85;9.90;;;;;;;;;;4735352;30;20053;-55
2022/07/13 13:21:30;;;;;;;12.65;9.15;;;;;;;;;;4732145;30;20061;-59
2022/07/13 13:23:58;;;;;;;12.10;10.10;;;;;;;;;;4735203;30;20111;-60
2022/07/13 13:26:25;;;;;;;12.48;9.73;;;;;;;;;;4735177;30;20052;-53
2022/07/13 13:31:54;;;;;;;12.65;10.18;;;;;;;;;;4735028;30;20052;-52
2022/07/13 13:34:22;;;;;;;12.48;9.50;;;;;;;;;;4734390;30;20124;-54
2022/07/13 13:36:50;;;;;;;13.32;9.50;;;;;;;;;;4735124;30;20048;-52
2022/07/13 13:39:18;;;;;;;10.57;9.15;;;;;;;;;;4734818;30;20435;-60
2022/07/13 13:41:46;;;;;;;11.32;9.18;;;;;;;;;;4734960;30;20041;-61
2022/07/13 13:44:15;;;;;;;16.75;8.85;;;;;;;;;;4734741;30;20044;-54
2022/07/13 13:46:43;;;;;;;12.82;9.23;;;;;;;;;;4735060;30;20089;-54
2022/07/13 13:49:11;;;;;;;10.18;8.85;;;;;;;;;;4734996;30;20053;-57
2022/07/13 13:51:39;;;;;;;11.70;8.95;;;;;;;;;;4734173;30;20053;-53
2022/07/13 13:54:23;;;;;;;14.90;9.25;;;;;;;;;;4734305;30;20099;-53
2022/07/13 13:56:50;;;;;;;9.27;8.27;;;;;;;;;;4733593;30;20110;-54
2022/07/13 13:59:18;;;;;;;10.48;8.38;;;;;;;;;;4733474;30;20583;-61
2022/07/13 14:01:45;;;;;;;10.65;8.77;;;;;;;;;;4733681;30;20075;-60
2022/07/13 14:04:16;;;;;;;10.20;8.18;;;;;;;;;;4733157;30;20123;-53
2022/07/13 14:06:45;;;;;;;10.90;8.77;;;;;;;;;;4733686;30;20074;-55
2022/07/13 14:09:13;;;;;;;11.15;8.85;;;;;;;;;;4733617;30;20079;-63
2022/07/13 14:11:41;;;;;;;9.73;8.05;;;;;;;;;;4733743;30;20102;-54
2022/07/13 14:14:09;;;;;;;10.40;8.57;;;;;;;;;;4733531;30;20044;-53
2022/07/13 14:16:37;;;;;;;21.70;19.23;;;;;;;;;;4733486;30;20045;-53
2022/07/13 14:19:04;;;;;;;13.05;10.55;;;;;;;;;;4733490;30;20037;-63
2022/07/13 14:21:31;;;;;;;10.20;9.07;;;;;;;;;;4733567;30;20052;-59
2022/07/13 14:23:59;;;;;;;12.90;9.30;;;;;;;;;;4733456;30;20049;-50
2022/07/13 14:26:46;;;;;;;9.63;8.25;;;;;;;;;;4732959;30;20417;-52
2022/07/13 14:29:29;;;;;;;9.52;8.52;;;;;;;;;;4733281;30;20646;-55
2022/07/13 14:31:57;;;;;;;8.40;7.57;;;;;;;;;;4733123;30;20102;-53
2022/07/13 14:34:45;;;;;;;13.85;7.10;;;;;;;;;;4733074;30;20073;-54
2022/07/13 14:37:15;;;;;;;10.05;7.32;;;;;;;;;;4733395;30;20049;-53
2022/07/13 14:39:43;;;;;;;9.35;7.50;;;;;;;;;;4717316;30;20052;-54
2022/07/13 14:42:11;;;;;;;10.77;7.78;;;;;;;;;;4732830;30;20052;-53
2022/07/13 14:44:40;;;;;;;8.10;7.22;;;;;;;;;;4732917;30;20501;-52
2022/07/13 14:47:13;;;;;;;8.60;6.32;;;;;;;;;;4732993;30;20118;-52
2022/07/13 14:49:40;;;;;;;7.72;6.32;;;;;;;;;;4733168;30;20049;-58
2022/07/13 14:52:22;;;;;;;7.45;6.32;;;;;;;;;;4732605;30;20057;-55
2022/07/13 14:54:50;;;;;;;8.52;5.65;;;;;;;;;;4732636;30;20041;-55
2022/07/13 14:57:17;;;;;;;6.38;5.45;;;;;;;;;;4732883;30;20090;-53